createdAt,value
2023-04-12T00:02:01.267Z,10.20
2023-04-12T00:04:30.116Z,10.80
2023-04-12T00:07:01.235Z,9.90
2023-04-12T00:09:30.685Z,8.90
2023-04-12T00:11:59.344Z,9.10
2023-04-12T00:14:27.720Z,19.50
2023-04-12T00:16:56.107Z,14.50
2023-04-12T00:19:26.010Z,19.70
2023-04-12T00:21:54.161Z,19.00
2023-04-12T00:24:22.330Z,21.30
2023-04-12T00:26:50.627Z,20.40
2023-04-12T00:29:19.815Z,14.50
2023-04-12T00:31:50.150Z,14.60
2023-04-12T00:34:18.355Z,18.70
2023-04-12T00:36:51.344Z,21.80
2023-04-12T00:39:19.629Z,18.40
2023-04-12T00:41:48.109Z,18.00
2023-04-12T00:44:18.257Z,15.50
2023-04-12T00:46:47.188Z,22.00
2023-04-12T00:49:15.714Z,13.80
2023-04-12T00:51:45.330Z,12.80
2023-04-12T00:54:18.317Z,18.90
2023-04-12T00:56:47.359Z,18.10
2023-04-12T00:59:15.907Z,17.80
2023-04-12T01:01:46.685Z,16.70
2023-04-12T01:04:15.132Z,16.80
2023-04-12T01:07:10.265Z,15.50
2023-04-12T01:10:02.857Z,18.00
2023-04-12T01:12:51.634Z,13.80
2023-04-12T01:15:19.720Z,12.20
2023-04-12T01:18:02.960Z,10.80
2023-04-12T01:20:39.377Z,8.00
2023-04-12T01:23:29.777Z,6.80
2023-04-12T01:26:11.679Z,13.30
2023-04-12T01:28:42.329Z,7.20
2023-04-12T01:31:10.644Z,8.80
2023-04-12T01:33:38.923Z,7.30
2023-04-12T01:36:27.479Z,5.60
2023-04-12T01:38:57.007Z,9.90
2023-04-12T01:41:25.634Z,6.20
2023-04-12T01:43:53.869Z,6.00
2023-04-12T01:46:24.114Z,5.40
2023-04-12T01:48:53.522Z,5.80
2023-04-12T01:51:40.632Z,4.40
2023-04-12T01:54:11.834Z,8.50
2023-04-12T01:56:41.789Z,6.00
2023-04-12T01:59:11.558Z,4.60
2023-04-12T02:01:39.639Z,10.50
2023-04-12T02:04:08.771Z,7.10
2023-04-12T02:06:37.856Z,4.00
2023-04-12T02:09:06.752Z,8.20
2023-04-12T02:11:36.305Z,4.80
2023-04-12T02:14:04.406Z,5.90
2023-04-12T02:16:34.761Z,6.70
2023-04-12T02:19:04.112Z,6.40
2023-04-12T02:21:41.260Z,6.50
2023-04-12T02:24:10.057Z,5.30
2023-04-12T02:26:39.101Z,8.00
2023-04-12T02:29:09.792Z,5.30
2023-04-12T02:31:39.218Z,9.30
2023-04-12T02:34:10.123Z,5.20
2023-04-12T02:36:39.675Z,8.10
2023-04-12T02:39:08.037Z,4.90
2023-04-12T02:41:36.709Z,5.40
2023-04-12T02:44:06.752Z,8.60
2023-04-12T02:46:40.555Z,9.20
2023-04-12T02:49:08.779Z,7.30
2023-04-12T02:51:41.835Z,9.10
2023-04-12T02:54:11.382Z,10.40
2023-04-12T02:56:53.005Z,10.30
2023-04-12T02:59:54.556Z,9.60
2023-04-12T03:02:26.288Z,7.90
2023-04-12T03:04:58.777Z,8.20
2023-04-12T03:07:36.174Z,6.60
2023-04-12T03:10:07.450Z,9.70
2023-04-12T03:12:38.353Z,7.20
2023-04-12T03:15:23.801Z,9.10
2023-04-12T03:17:53.791Z,7.10
2023-04-12T03:20:25.314Z,6.80
2023-04-12T03:23:13.704Z,8.90
2023-04-12T03:25:45.942Z,8.40
2023-04-12T03:28:39.361Z,11.00
2023-04-12T03:31:08.461Z,16.40
2023-04-12T03:33:41.092Z,12.60
2023-04-12T03:36:13.517Z,12.80
2023-04-12T03:38:42.149Z,11.60
2023-04-12T03:41:10.665Z,8.40
2023-04-12T03:43:40.665Z,11.40
2023-04-12T03:46:17.048Z,5.90
2023-04-12T03:48:46.484Z,9.40
2023-04-12T03:51:15.604Z,8.90
2023-04-12T03:53:47.987Z,9.50
2023-04-12T03:56:17.463Z,9.40
2023-04-12T03:58:48.206Z,6.80
2023-04-12T04:01:18.221Z,6.70
2023-04-12T04:03:48.300Z,9.10
2023-04-12T04:06:29.976Z,7.40
2023-04-12T04:08:58.522Z,10.30
2023-04-12T04:11:26.999Z,7.00
2023-04-12T04:13:59.400Z,6.10
2023-04-12T04:16:30.239Z,7.20
2023-04-12T04:18:58.922Z,8.40
2023-04-12T04:21:32.423Z,10.30
2023-04-12T04:24:02.497Z,8.50
2023-04-12T04:26:35.932Z,9.10
2023-04-12T04:29:09.980Z,10.10
2023-04-12T04:31:40.093Z,7.90
2023-04-12T04:34:10.575Z,8.50
2023-04-12T04:36:43.834Z,6.30
2023-04-12T04:39:15.958Z,9.80
2023-04-12T04:41:46.979Z,7.20
2023-04-12T04:44:26.028Z,6.50
2023-04-12T04:46:59.347Z,8.20
2023-04-12T04:49:33.945Z,6.90
2023-04-12T04:52:20.486Z,8.20
2023-04-12T04:54:49.056Z,7.70
2023-04-12T04:57:22.543Z,7.20
2023-04-12T04:59:51.563Z,9.10
2023-04-12T05:02:21.622Z,6.90
2023-04-12T05:04:51.417Z,7.60
2023-04-12T05:07:21.616Z,7.00
2023-04-12T05:09:50.424Z,7.10
2023-04-12T05:12:21.540Z,8.80
2023-04-12T05:15:10.578Z,7.40
2023-04-12T05:17:41.173Z,11.00
2023-04-12T05:20:12.259Z,6.20
2023-04-12T05:22:41.157Z,8.70
2023-04-12T05:25:10.571Z,8.80
2023-04-12T05:27:45.966Z,10.20
2023-04-12T05:30:17.432Z,9.60
2023-04-12T05:32:48.387Z,7.50
2023-04-12T05:35:18.734Z,7.50
2023-04-12T05:37:47.434Z,8.50
2023-04-12T05:40:17.050Z,10.90
2023-04-12T05:42:46.281Z,5.40
2023-04-12T05:45:15.716Z,8.60
2023-04-12T05:47:45.803Z,7.80
2023-04-12T05:50:14.571Z,9.90
2023-04-12T05:52:44.653Z,9.90
2023-04-12T05:55:14.069Z,5.90
2023-04-12T05:57:44.777Z,7.60
2023-04-12T06:00:17.627Z,11.60
2023-04-12T06:02:48.026Z,6.70
2023-04-12T06:05:19.802Z,6.50
2023-04-12T06:07:49.448Z,6.90
2023-04-12T06:10:18.440Z,7.70
2023-04-12T06:12:50.685Z,7.20
2023-04-12T06:15:22.203Z,11.90
2023-04-12T06:17:56.735Z,11.50
2023-04-12T06:20:25.475Z,10.10
2023-04-12T06:22:54.523Z,7.20
2023-04-12T06:25:23.354Z,8.50
2023-04-12T06:27:54.081Z,6.90
2023-04-12T06:30:24.638Z,7.00
2023-04-12T06:32:54.998Z,8.70
2023-04-12T06:35:24.985Z,9.80
2023-04-12T06:37:53.375Z,10.70
2023-04-12T06:40:21.647Z,9.90
2023-04-12T06:42:52.704Z,8.30
2023-04-12T06:45:23.970Z,10.80
2023-04-12T06:47:56.260Z,7.50
2023-04-12T06:50:26.313Z,11.00
2023-04-12T06:52:55.540Z,6.50
2023-04-12T06:55:24.171Z,10.00
2023-04-12T06:57:52.533Z,6.30
2023-04-12T07:00:26.525Z,7.80
2023-04-12T07:02:55.258Z,5.50
2023-04-12T07:05:23.697Z,8.40
2023-04-12T07:07:56.090Z,7.70
2023-04-12T07:10:25.804Z,10.50
2023-04-12T07:12:54.266Z,8.20
2023-04-12T07:15:22.715Z,10.30
2023-04-12T07:17:51.980Z,8.80
2023-04-12T07:20:21.003Z,7.10
2023-04-12T07:22:53.688Z,10.70
2023-04-12T07:25:30.528Z,9.10
2023-04-12T07:27:59.370Z,7.60
2023-04-12T07:30:28.110Z,8.90
2023-04-12T07:33:05.238Z,8.50
2023-04-12T07:35:42.934Z,7.30
2023-04-12T07:38:11.488Z,10.30
2023-04-12T07:40:39.949Z,8.00
2023-04-12T07:43:10.514Z,10.70
2023-04-12T07:45:39.406Z,8.70
2023-04-12T07:48:08.413Z,9.10
2023-04-12T07:50:37.287Z,8.30
2023-04-12T07:53:22.470Z,7.50
2023-04-12T07:55:51.598Z,8.60
2023-04-12T07:58:20.801Z,7.50
2023-04-12T08:00:54.674Z,9.00
2023-04-12T08:03:24.600Z,8.20
2023-04-12T08:05:56.083Z,7.10
2023-04-12T08:08:26.055Z,8.80
2023-04-12T08:10:55.410Z,7.70
2023-04-12T08:13:23.779Z,7.90
2023-04-12T08:15:55.342Z,7.20
2023-04-12T08:18:24.422Z,6.80
2023-04-12T08:20:52.707Z,7.90
2023-04-12T08:23:23.854Z,6.20
2023-04-12T08:25:53.028Z,6.60
2023-04-12T08:28:27.401Z,8.10
2023-04-12T08:33:27.245Z,7.40
2023-04-12T08:35:55.889Z,9.00
2023-04-12T08:38:41.581Z,6.90
2023-04-12T08:41:14.673Z,7.10
2023-04-12T08:43:45.460Z,7.60
2023-04-12T08:46:18.407Z,8.40
2023-04-12T08:48:47.774Z,6.70
2023-04-12T08:51:17.691Z,6.10
2023-04-12T08:53:46.046Z,7.00
2023-04-12T08:56:22.140Z,6.40
2023-04-12T08:58:51.348Z,6.80
2023-04-12T09:01:20.609Z,7.40
2023-04-12T09:03:51.999Z,6.00
2023-04-12T09:06:22.213Z,6.70
2023-04-12T09:08:57.135Z,7.90
2023-04-12T09:11:31.184Z,9.70
2023-04-12T09:14:00.183Z,6.60
2023-04-12T09:16:39.227Z,6.70
2023-04-12T09:19:12.690Z,6.30
2023-04-12T09:21:55.653Z,11.20
2023-04-12T09:24:25.564Z,6.60
2023-04-12T09:27:03.464Z,6.50
2023-04-12T09:29:33.164Z,7.20
2023-04-12T09:32:06.207Z,7.00
2023-04-12T09:34:40.055Z,5.70
2023-04-12T09:37:18.913Z,7.40
2023-04-12T09:40:09.878Z,5.70
2023-04-12T09:43:03.471Z,9.20
2023-04-12T09:45:39.613Z,6.50
2023-04-12T09:48:08.582Z,8.80
2023-04-12T09:50:36.952Z,8.00
2023-04-12T09:53:17.328Z,9.50
2023-04-12T09:55:46.428Z,5.90
2023-04-12T09:58:14.497Z,7.10
2023-04-12T10:00:44.399Z,7.30
2023-04-12T10:03:14.278Z,8.90
2023-04-12T10:05:43.046Z,7.90
2023-04-12T10:08:15.766Z,8.50
2023-04-12T10:10:46.733Z,7.30
2023-04-12T10:13:15.445Z,8.10
2023-04-12T10:15:45.930Z,8.20
2023-04-12T10:18:14.896Z,9.60
2023-04-12T10:20:43.785Z,9.20
2023-04-12T10:23:18.523Z,10.50
2023-04-12T10:25:47.215Z,7.70
2023-04-12T10:28:23.087Z,9.80
2023-04-12T10:30:59.128Z,10.10
2023-04-12T10:33:32.859Z,9.40
2023-04-12T10:36:11.270Z,12.30
2023-04-12T10:39:09.551Z,10.10
2023-04-12T10:41:38.286Z,12.30
2023-04-12T10:44:24.155Z,11.90
2023-04-12T10:46:52.672Z,12.10
2023-04-12T10:49:21.203Z,13.80
2023-04-12T10:52:03.019Z,12.00
2023-04-12T10:54:36.821Z,13.10
2023-04-12T10:57:07.648Z,12.20
2023-04-12T10:59:51.496Z,13.80
2023-04-12T11:02:22.085Z,14.70
2023-04-12T11:05:14.807Z,13.00
2023-04-12T11:08:15.944Z,14.60
2023-04-12T11:11:06.208Z,22.00
2023-04-12T11:13:39.436Z,19.70
2023-04-12T11:16:13.248Z,18.80
2023-04-12T11:18:46.991Z,19.10
2023-04-12T11:21:15.379Z,20.60
2023-04-12T11:23:45.794Z,22.60
2023-04-12T11:26:20.474Z,23.20
2023-04-12T11:28:50.496Z,20.60
2023-04-12T11:31:20.355Z,21.20
2023-04-12T11:33:48.937Z,23.60
2023-04-12T11:36:17.432Z,21.90
2023-04-12T11:38:47.451Z,17.00
2023-04-12T11:41:17.062Z,21.90
2023-04-12T11:43:47.212Z,21.20
2023-04-12T11:46:18.617Z,20.60
2023-04-12T11:48:47.336Z,19.40
2023-04-12T11:51:25.018Z,19.90
2023-04-12T11:53:55.276Z,19.50
2023-04-12T11:56:24.370Z,16.80
2023-04-12T11:58:53.048Z,18.20
2023-04-12T12:01:22.445Z,19.70
2023-04-12T12:03:52.171Z,20.70
2023-04-12T12:06:21.782Z,16.90
2023-04-12T12:08:51.497Z,17.90
2023-04-12T12:11:21.827Z,20.70
2023-04-12T12:13:54.801Z,20.20
2023-04-12T12:16:28.607Z,19.50
2023-04-12T12:18:58.968Z,19.30
2023-04-12T12:21:27.876Z,22.00
2023-04-12T12:23:56.796Z,19.50
2023-04-12T12:26:27.253Z,17.90
2023-04-12T12:28:56.970Z,17.10
2023-04-12T12:31:28.206Z,16.00
2023-04-12T12:33:58.359Z,20.70
2023-04-12T12:36:34.588Z,16.50
2023-04-12T12:39:13.104Z,18.60
2023-04-12T12:41:41.740Z,16.60
2023-04-12T12:44:15.105Z,15.90
